createdAt,value
2022-08-12T00:00:29.012Z,2.17
2022-08-12T00:02:46.410Z,1.80
2022-08-12T00:05:07.668Z,2.17
2022-08-12T00:07:27.204Z,2.35
2022-08-12T00:09:44.773Z,2.00
2022-08-12T00:12:07.277Z,1.73
2022-08-12T00:14:24.869Z,2.25
2022-08-12T00:16:42.922Z,1.67
2022-08-12T00:19:00.427Z,1.85
2022-08-12T00:21:20.636Z,1.98
2022-08-12T00:23:38.503Z,1.80
2022-08-12T00:26:20.654Z,1.70
2022-08-12T00:28:35.525Z,1.90
2022-08-12T00:30:52.916Z,1.75
2022-08-12T00:33:10.707Z,1.88
2022-08-12T00:35:36.514Z,2.00
2022-08-12T00:37:56.960Z,1.95
2022-08-12T00:40:14.246Z,2.08
2022-08-12T00:42:19.962Z,2.45
2022-08-12T00:44:26.335Z,2.15
2022-08-12T00:46:43.416Z,1.98
2022-08-12T00:48:50.696Z,2.20
2022-08-12T00:51:07.999Z,2.20
2022-08-12T00:53:19.164Z,2.38
2022-08-12T00:55:24.266Z,2.10
2022-08-12T00:57:31.643Z,2.20
2022-08-12T00:59:37.570Z,1.80
2022-08-12T01:02:02.250Z,2.15
2022-08-12T01:04:28.265Z,1.73
2022-08-12T01:06:50.912Z,2.00
2022-08-12T01:09:11.157Z,1.90
2022-08-12T01:11:33.218Z,1.63
2022-08-12T01:13:42.347Z,1.80
2022-08-12T01:15:48.341Z,1.95
2022-08-12T01:17:53.998Z,2.25
2022-08-12T01:20:02.930Z,1.90
2022-08-12T01:22:25.978Z,1.80
2022-08-12T01:24:52.191Z,1.67
2022-08-12T01:29:03.961Z,2.05
2022-08-12T01:31:13.315Z,2.13
2022-08-12T01:33:24.097Z,2.20
2022-08-12T01:35:30.496Z,2.13
2022-08-12T01:37:40.649Z,2.03
2022-08-12T01:40:36.732Z,2.05
2022-08-12T01:42:23.192Z,2.42
2022-08-12T01:44:31.220Z,1.98
2022-08-12T01:46:48.173Z,2.30
2022-08-12T01:49:07.555Z,2.20
2022-08-12T01:52:04.555Z,2.30
2022-08-12T01:54:09.612Z,1.88
2022-08-12T01:56:18.725Z,1.90
2022-08-12T01:58:32.026Z,1.77
2022-08-12T02:00:55.259Z,1.90
2022-08-12T02:03:12.580Z,1.88
2022-08-12T02:05:40.363Z,1.90
2022-08-12T02:08:10.406Z,1.80
2022-08-12T02:10:50.401Z,1.88
2022-08-12T02:13:13.486Z,2.17
2022-08-12T02:15:26.606Z,1.60
2022-08-12T02:17:55.082Z,2.08
2022-08-12T02:20:12.876Z,1.58
2022-08-12T02:22:29.423Z,1.70
2022-08-12T02:24:35.757Z,1.60
2022-08-12T02:26:43.327Z,2.15
2022-08-12T02:28:52.214Z,1.85
2022-08-12T02:30:57.978Z,1.98
2022-08-12T02:33:04.741Z,1.83
2022-08-12T02:35:15.017Z,1.95
2022-08-12T02:37:21.318Z,2.28
2022-08-12T02:39:28.998Z,2.60
2022-08-12T02:41:37.448Z,1.98
2022-08-12T02:43:49.444Z,2.10
2022-08-12T02:46:03.438Z,2.10
2022-08-12T02:48:12.066Z,1.83
2022-08-12T02:50:20.542Z,2.00
2022-08-12T02:52:27.094Z,2.33
2022-08-12T02:54:31.971Z,1.88
2022-08-12T02:56:40.630Z,1.88
2022-08-12T02:58:46.981Z,2.13
2022-08-12T03:00:52.001Z,2.20
2022-08-12T03:05:07.452Z,2.28
2022-08-12T03:07:17.731Z,2.40
2022-08-12T03:09:25.405Z,2.00
2022-08-12T03:11:42.729Z,2.10
2022-08-12T03:13:54.662Z,2.00
2022-08-12T03:16:01.048Z,2.08
2022-08-12T03:18:24.216Z,2.22
2022-08-12T03:22:38.038Z,1.70
2022-08-12T03:24:45.350Z,1.83
2022-08-12T03:26:51.494Z,2.25
2022-08-12T03:28:58.178Z,1.88
2022-08-12T03:31:05.685Z,2.03
2022-08-12T03:33:16.369Z,2.17
2022-08-12T03:35:41.202Z,2.00
2022-08-12T03:37:48.111Z,2.45
2022-08-12T03:39:53.006Z,1.80
2022-08-12T03:41:59.842Z,1.52
2022-08-12T03:44:22.797Z,2.28
2022-08-12T03:49:07.151Z,2.42
2022-08-12T03:51:26.493Z,2.33
2022-08-12T03:53:45.951Z,2.83
2022-08-12T03:56:03.273Z,2.38
2022-08-12T03:58:21.844Z,1.90
2022-08-12T04:00:28.624Z,2.70
2022-08-12T04:02:35.106Z,2.20
2022-08-12T04:04:45.600Z,2.30
2022-08-12T04:06:50.800Z,2.90
2022-08-12T04:08:57.799Z,2.10
2022-08-12T04:11:15.087Z,2.33
2022-08-12T04:13:25.724Z,2.15
2022-08-12T04:15:32.707Z,2.33
2022-08-12T04:17:39.538Z,2.40
2022-08-12T04:20:11.354Z,2.50
2022-08-12T04:22:16.305Z,2.30
2022-08-12T04:24:24.834Z,2.15
2022-08-12T04:26:30.299Z,2.10
2022-08-12T04:28:35.956Z,2.55
2022-08-12T04:30:41.574Z,2.80
2022-08-12T04:32:48.136Z,2.80
2022-08-12T04:34:53.723Z,3.33
2022-08-12T04:37:01.447Z,2.90
2022-08-12T04:39:07.937Z,2.45
2022-08-12T04:41:13.412Z,2.30
2022-08-12T04:44:00.813Z,2.20
2022-08-12T04:45:43.567Z,2.50
2022-08-12T04:49:54.025Z,3.03
2022-08-12T04:52:03.349Z,2.97
2022-08-12T04:54:08.738Z,2.45
2022-08-12T04:56:13.782Z,2.28
2022-08-12T04:58:29.683Z,2.40
2022-08-12T05:00:36.097Z,2.55
2022-08-12T05:02:41.695Z,2.80
2022-08-12T05:04:47.923Z,2.17
2022-08-12T05:06:52.954Z,2.72
2022-08-12T05:09:01.623Z,3.00
2022-08-12T05:11:07.785Z,3.00
2022-08-12T05:13:15.850Z,3.03
2022-08-12T05:15:29.336Z,3.10
2022-08-12T05:17:34.653Z,3.30
2022-08-12T05:19:40.072Z,2.33
2022-08-12T05:21:49.185Z,2.30
2022-08-12T05:23:54.943Z,2.58
2022-08-12T05:26:03.219Z,2.28
2022-08-12T05:28:11.524Z,2.70
2022-08-12T05:30:18.229Z,2.50
2022-08-12T05:32:26.129Z,2.30
2022-08-12T05:34:31.495Z,2.10
2022-08-12T05:36:36.676Z,2.47
2022-08-12T05:40:59.115Z,2.22
2022-08-12T05:45:13.152Z,2.50
2022-08-12T05:47:18.268Z,2.20
2022-08-12T05:49:23.034Z,2.40
2022-08-12T05:51:39.879Z,2.55
2022-08-12T05:53:46.612Z,2.00
2022-08-12T05:57:56.768Z,2.03
2022-08-12T06:00:04.348Z,2.00
2022-08-12T06:02:16.435Z,2.03
2022-08-12T06:04:21.441Z,2.80
2022-08-12T06:06:27.840Z,2.17
2022-08-12T06:08:34.837Z,1.92
2022-08-12T06:10:42.988Z,2.20
2022-08-12T06:12:49.329Z,2.25
2022-08-12T06:14:55.783Z,2.17
2022-08-12T06:17:03.493Z,1.70
2022-08-12T06:19:08.370Z,2.15
2022-08-12T06:21:14.659Z,2.13
2022-08-12T06:23:19.869Z,1.90
2022-08-12T06:27:33.453Z,2.20
2022-08-12T06:30:09.732Z,2.08
2022-08-12T06:32:07.158Z,2.20
2022-08-12T06:35:24.213Z,2.10
2022-08-12T06:36:40.719Z,2.08
2022-08-12T06:38:49.764Z,1.98
2022-08-12T06:41:09.757Z,2.10
2022-08-12T06:43:14.671Z,2.08
2022-08-12T06:45:19.817Z,1.70
2022-08-12T06:49:36.564Z,1.80
2022-08-12T06:51:41.999Z,2.22
2022-08-12T06:53:59.935Z,1.60
2022-08-12T06:56:08.181Z,1.70
2022-08-12T06:58:16.671Z,1.40
2022-08-12T07:00:30.694Z,1.90
2022-08-12T07:02:40.748Z,1.90
2022-08-12T07:04:47.578Z,1.92
2022-08-12T07:06:52.463Z,1.73
2022-08-12T07:08:57.331Z,1.98
2022-08-12T07:11:03.593Z,1.63
2022-08-12T07:13:09.748Z,1.70
2022-08-12T07:15:14.577Z,1.60
2022-08-12T07:17:19.510Z,1.70
2022-08-12T07:19:40.586Z,2.05
2022-08-12T07:21:59.488Z,1.83
2022-08-12T07:24:08.590Z,1.33
2022-08-12T07:26:16.146Z,1.48
2022-08-12T07:28:24.564Z,1.73
2022-08-12T07:30:30.664Z,1.90
2022-08-12T07:32:35.615Z,1.58
2022-08-12T07:36:49.127Z,1.48
2022-08-12T07:38:53.990Z,1.52
2022-08-12T07:41:07.330Z,1.40
2022-08-12T07:43:12.965Z,1.30
2022-08-12T07:45:17.928Z,1.35
2022-08-12T07:49:28.740Z,1.33
2022-08-12T07:51:37.142Z,1.48
2022-08-12T07:53:50.157Z,1.25
2022-08-12T07:56:06.299Z,1.10
2022-08-12T07:58:11.174Z,1.35
2022-08-12T08:00:18.502Z,1.60
2022-08-12T08:02:26.942Z,1.08
2022-08-12T08:04:44.220Z,1.40
2022-08-12T08:06:52.937Z,1.35
2022-08-12T08:08:58.368Z,1.40
2022-08-12T08:11:21.387Z,1.52
2022-08-12T08:13:26.364Z,1.58
2022-08-12T08:16:01.343Z,1.63
2022-08-12T08:18:02.867Z,1.30
2022-08-12T08:20:10.254Z,1.42
2022-08-12T08:22:17.702Z,1.42
2022-08-12T08:24:39.925Z,1.58
2022-08-12T08:26:45.519Z,1.50
2022-08-12T08:28:51.467Z,1.13
2022-08-12T08:30:56.410Z,1.33
2022-08-12T08:35:10.601Z,1.27
2022-08-12T08:37:19.170Z,1.20
2022-08-12T08:39:27.544Z,1.33
2022-08-12T08:42:16.495Z,1.33
2022-08-12T08:44:11.304Z,1.48
2022-08-12T08:46:16.429Z,1.67
2022-08-12T08:48:22.283Z,1.45
2022-08-12T08:50:27.097Z,2.05
2022-08-12T08:52:40.409Z,1.40
2022-08-12T08:54:48.847Z,1.50
2022-08-12T08:56:54.150Z,1.73
2022-08-12T08:58:59.217Z,1.48
2022-08-12T09:01:04.332Z,1.27
2022-08-12T09:06:01.745Z,1.20
2022-08-12T09:08:13.088Z,1.30
2022-08-12T09:10:31.278Z,1.80
2022-08-12T09:12:54.793Z,1.40
2022-08-12T09:15:00.487Z,1.20
2022-08-12T09:17:05.627Z,1.30
2022-08-12T09:19:27.097Z,1.20
2022-08-12T09:21:54.083Z,1.70
2022-08-12T09:26:29.006Z,2.15
2022-08-12T09:28:36.904Z,1.30
2022-08-12T09:30:44.762Z,1.20
2022-08-12T09:33:04.161Z,1.20
2022-08-12T09:35:22.075Z,1.83
2022-08-12T09:37:28.438Z,1.40
2022-08-12T09:40:06.286Z,1.20
2022-08-12T09:42:43.300Z,1.40
2022-08-12T09:45:18.056Z,1.40
2022-08-12T09:47:29.321Z,1.13
2022-08-12T09:49:41.378Z,1.33
2022-08-12T09:51:47.642Z,1.10
2022-08-12T09:54:08.763Z,1.10
2022-08-12T09:56:58.036Z,1.20
2022-08-12T09:59:00.344Z,1.27
2022-08-12T10:01:14.815Z,1.00
2022-08-12T10:03:31.992Z,1.10
2022-08-12T10:06:11.857Z,1.15
2022-08-12T10:08:11.402Z,1.00
2022-08-12T10:10:22.849Z,1.10
2022-08-12T10:13:07.741Z,1.40
2022-08-12T10:15:15.266Z,1.20
2022-08-12T10:17:36.355Z,1.80
2022-08-12T10:20:01.420Z,1.83
2022-08-12T10:22:17.235Z,1.20
2022-08-12T10:24:32.539Z,1.08
2022-08-12T10:26:51.225Z,1.73
2022-08-12T10:30:01.081Z,1.33
2022-08-12T10:32:01.666Z,1.30
2022-08-12T10:34:06.659Z,1.88
2022-08-12T10:36:19.365Z,1.35
2022-08-12T10:38:39.051Z,1.10
2022-08-12T10:40:58.913Z,1.42
2022-08-12T10:43:16.988Z,1.40
2022-08-12T10:45:24.547Z,1.23
2022-08-12T10:48:07.746Z,1.27
2022-08-12T10:50:10.490Z,1.02
2022-08-12T10:52:34.059Z,1.33
2022-08-12T10:54:46.348Z,1.10
2022-08-12T10:56:58.297Z,1.30
2022-08-12T10:59:03.951Z,1.20
2022-08-12T11:01:50.254Z,1.25
2022-08-12T11:04:23.649Z,1.00
2022-08-12T11:07:03.566Z,1.33
2022-08-12T11:08:37.319Z,1.60
2022-08-12T11:10:47.564Z,1.48
2022-08-12T11:13:00.243Z,1.00
2022-08-12T11:15:19.219Z,1.38
2022-08-12T11:17:43.198Z,1.30
2022-08-12T11:19:53.830Z,1.40
2022-08-12T11:24:10.246Z,1.23
2022-08-12T11:26:35.310Z,1.40
2022-08-12T11:28:40.460Z,1.10
2022-08-12T11:30:45.525Z,1.35
2022-08-12T11:32:52.960Z,1.15
2022-08-12T11:35:01.020Z,1.52
2022-08-12T11:37:24.820Z,1.20
2022-08-12T11:41:56.743Z,1.00
2022-08-12T11:44:35.651Z,1.00
2022-08-12T11:46:30.547Z,0.98
2022-08-12T11:48:52.430Z,1.00
2022-08-12T11:50:58.700Z,0.93
2022-08-12T11:53:03.565Z,0.90
2022-08-12T11:55:14.944Z,1.58
2022-08-12T11:58:06.994Z,0.90
2022-08-12T12:02:20.443Z,1.10
2022-08-12T12:04:29.532Z,1.20
2022-08-12T12:06:35.250Z,0.93
2022-08-12T12:08:43.360Z,1.10
2022-08-12T12:10:53.107Z,0.70
2022-08-12T12:12:57.992Z,0.80
2022-08-12T12:15:06.957Z,0.88
2022-08-12T12:17:14.413Z,1.10
2022-08-12T12:21:47.272Z,0.68
2022-08-12T12:23:51.873Z,1.00
2022-08-12T12:28:35.268Z,0.70
2022-08-12T12:30:39.091Z,1.20
2022-08-12T12:32:59.817Z,0.60
2022-08-12T12:35:14.636Z,0.85
2022-08-12T12:38:03.848Z,0.80
2022-08-12T12:39:57.042Z,1.00
2022-08-12T12:42:55.831Z,0.75
2022-08-12T12:44:38.521Z,0.90
2022-08-12T12:46:46.762Z,1.40
2022-08-12T12:48:51.808Z,1.10
2022-08-12T12:51:10.310Z,0.90
2022-08-12T12:54:06.813Z,0.90
2022-08-12T12:55:47.428Z,0.80
2022-08-12T12:58:00.009Z,1.13
2022-08-12T13:00:19.019Z,0.90
2022-08-12T13:02:31.584Z,0.80
2022-08-12T13:04:37.473Z,1.17
2022-08-12T13:06:42.659Z,0.90
2022-08-12T13:11:03.574Z,0.70
2022-08-12T13:14:07.230Z,1.00
2022-08-12T13:15:45.154Z,1.30
2022-08-12T13:18:02.035Z,1.10
2022-08-12T13:20:10.257Z,0.77
2022-08-12T13:22:23.441Z,0.85
2022-08-12T13:24:31.841Z,0.98
2022-08-12T13:26:37.953Z,0.95
2022-08-12T13:28:49.596Z,1.00
2022-08-12T13:33:06.239Z,0.90
2022-08-12T13:35:33.275Z,0.95
2022-08-12T13:37:54.914Z,1.02
2022-08-12T13:40:03.057Z,0.77
2022-08-12T13:42:14.386Z,1.00
2022-08-12T13:44:20.603Z,0.98
2022-08-12T13:46:25.581Z,0.90
2022-08-12T13:48:30.779Z,0.98
2022-08-12T13:50:39.069Z,1.00
2022-08-12T13:52:46.350Z,1.00
2022-08-12T13:54:56.064Z,1.00
2022-08-12T13:57:03.999Z,0.80
2022-08-12T13:59:16.256Z,0.60
2022-08-12T14:01:22.557Z,0.98
2022-08-12T14:03:28.686Z,0.90
2022-08-12T14:05:56.088Z,1.20
2022-08-12T14:08:02.887Z,1.58
2022-08-12T14:10:21.100Z,1.10
2022-08-12T14:12:53.800Z,0.95
2022-08-12T14:15:00.607Z,1.02
2022-08-12T14:17:09.998Z,1.23
2022-08-12T14:19:21.934Z,0.80
2022-08-12T14:21:30.129Z,0.90
2022-08-12T14:24:05.569Z,1.02
2022-08-12T14:26:21.403Z,1.00
2022-08-12T14:28:31.289Z,0.93
2022-08-12T14:30:36.190Z,0.77
2022-08-12T14:32:41.138Z,1.10
2022-08-12T14:34:46.046Z,0.75
2022-08-12T14:38:59.067Z,0.80
2022-08-12T14:41:08.628Z,1.08
2022-08-12T14:43:14.203Z,0.82
2022-08-12T14:45:24.712Z,0.90
2022-08-12T14:47:58.367Z,1.00
2022-08-12T14:50:58.419Z,0.90
2022-08-12T14:53:50.680Z,0.70
2022-08-12T14:57:23.811Z,0.60
2022-08-12T14:59:58.172Z,0.90
2022-08-12T15:02:06.275Z,1.15
2022-08-12T15:04:17.353Z,1.00
2022-08-12T15:06:44.167Z,1.08
2022-08-12T15:08:48.232Z,1.00
2022-08-12T15:10:54.109Z,0.80
2022-08-12T15:12:59.014Z,0.95
2022-08-12T15:17:37.324Z,0.90
2022-08-12T15:20:27.817Z,0.60
2022-08-12T15:22:36.048Z,0.95
2022-08-12T15:24:29.479Z,1.30
2022-08-12T15:26:40.790Z,0.88
2022-08-12T15:28:51.582Z,1.10
2022-08-12T15:31:00.936Z,0.77
2022-08-12T15:33:12.647Z,1.10
2022-08-12T15:35:20.630Z,0.65
2022-08-12T15:38:09.065Z,0.75
2022-08-12T15:39:55.391Z,1.08
2022-08-12T15:42:06.527Z,0.90
2022-08-12T15:44:36.939Z,1.00
2022-08-12T15:46:37.029Z,0.98
2022-08-12T15:48:47.000Z,1.10
2022-08-12T15:50:53.184Z,0.90
2022-08-12T15:53:14.677Z,0.90
2022-08-12T15:55:21.504Z,1.08
2022-08-12T15:57:26.490Z,0.90
2022-08-12T15:59:32.640Z,0.80
2022-08-12T16:01:57.764Z,0.90
2022-08-12T16:04:06.430Z,1.00
2022-08-12T16:06:18.986Z,0.70
2022-08-12T16:08:40.179Z,1.27
2022-08-12T16:10:46.085Z,0.93
2022-08-12T16:12:55.359Z,1.10
2022-08-12T16:15:01.726Z,1.05
2022-08-12T16:17:08.994Z,1.50
2022-08-12T16:20:03.122Z,1.00
2022-08-12T16:21:51.454Z,0.82
2022-08-12T16:23:58.252Z,1.17
2022-08-12T16:26:06.010Z,0.88
2022-08-12T16:28:23.287Z,1.00
2022-08-12T16:30:34.952Z,0.75
2022-08-12T16:32:46.421Z,1.20
2022-08-12T16:35:01.626Z,1.05
2022-08-12T16:37:13.277Z,1.08
2022-08-12T16:39:19.481Z,1.10
2022-08-12T16:41:25.713Z,0.93
2022-08-12T16:43:35.303Z,0.90
2022-08-12T16:46:05.001Z,1.05
2022-08-12T16:48:05.368Z,1.38
2022-08-12T16:50:16.288Z,1.00
2022-08-12T16:52:21.541Z,1.02
2022-08-12T16:54:36.345Z,0.95
2022-08-12T16:56:50.579Z,1.40
2022-08-12T16:59:00.688Z,1.10
2022-08-12T17:01:06.773Z,1.10
2022-08-12T17:03:13.687Z,1.00
2022-08-12T17:05:36.211Z,1.10
2022-08-12T17:07:52.474Z,1.20
2022-08-12T17:09:58.140Z,1.00
2022-08-12T17:14:07.819Z,1.10
2022-08-12T17:16:17.740Z,1.17
2022-08-12T17:18:43.979Z,1.00
2022-08-12T17:20:51.350Z,1.10
2022-08-12T17:22:57.520Z,1.10
2022-08-12T17:25:04.700Z,0.90
2022-08-12T17:27:19.488Z,1.00
2022-08-12T17:32:00.612Z,0.90
2022-08-12T17:34:17.424Z,1.27
2022-08-12T17:36:26.430Z,0.93
2022-08-12T17:38:31.266Z,1.00
2022-08-12T17:40:37.375Z,1.00
2022-08-12T17:42:47.850Z,1.10
2022-08-12T17:44:53.608Z,0.90
2022-08-12T17:46:59.431Z,1.17
2022-08-12T17:49:06.563Z,0.95
2022-08-12T17:51:31.489Z,0.90
2022-08-12T17:53:43.354Z,0.80
2022-08-12T17:56:03.559Z,1.00
2022-08-12T17:58:09.049Z,1.10
2022-08-12T18:00:18.724Z,0.77
2022-08-12T18:02:30.817Z,1.00
2022-08-12T18:04:36.529Z,1.40
2022-08-12T18:06:50.297Z,1.05
2022-08-12T18:08:58.852Z,1.20
2022-08-12T18:12:04.341Z,0.95
2022-08-12T18:13:42.897Z,1.38
2022-08-12T18:16:05.620Z,1.55
2022-08-12T18:18:16.640Z,1.20
2022-08-12T18:20:23.715Z,1.30
2022-08-12T18:22:34.098Z,1.00
2022-08-12T18:24:39.430Z,1.00
2022-08-12T18:26:44.424Z,1.20
2022-08-12T18:30:56.655Z,1.33
2022-08-12T18:33:07.016Z,1.20
2022-08-12T18:35:17.730Z,1.42
2022-08-12T18:37:42.364Z,1.30
2022-08-12T18:40:02.747Z,1.42
2022-08-12T18:42:08.261Z,1.58
2022-08-12T18:44:15.049Z,1.23
2022-08-12T18:46:20.882Z,1.25
2022-08-12T18:48:28.309Z,1.20
2022-08-12T18:50:49.136Z,1.10
2022-08-12T18:52:56.409Z,1.27
2022-08-12T18:55:08.286Z,2.25
2022-08-12T18:57:45.602Z,1.70
2022-08-12T19:00:02.465Z,1.20
2022-08-12T19:02:21.584Z,1.25
2022-08-12T19:04:31.382Z,1.10
2022-08-12T19:06:39.462Z,0.88
2022-08-12T19:08:47.158Z,1.60
2022-08-12T19:11:17.538Z,1.73
2022-08-12T19:13:36.121Z,1.40
2022-08-12T19:15:43.167Z,1.77
2022-08-12T19:18:00.512Z,1.25
2022-08-12T19:20:11.377Z,1.02
2022-08-12T19:22:28.838Z,1.20
2022-08-12T19:24:48.537Z,1.90
2022-08-12T19:26:58.583Z,1.35
2022-08-12T19:29:05.239Z,1.35
2022-08-12T19:31:56.301Z,1.58
2022-08-12T19:34:23.832Z,1.30
2022-08-12T19:38:32.506Z,1.10
2022-08-12T19:40:39.604Z,1.00
2022-08-12T19:42:53.560Z,1.40
2022-08-12T19:45:01.625Z,1.30
2022-08-12T19:47:12.026Z,1.40
2022-08-12T19:49:22.445Z,1.50
2022-08-12T19:51:34.013Z,1.20
2022-08-12T19:53:57.307Z,1.25
2022-08-12T19:56:02.986Z,1.10
2022-08-12T19:58:17.950Z,1.20
2022-08-12T20:00:26.575Z,1.30
2022-08-12T20:02:33.068Z,1.35
2022-08-12T20:04:40.258Z,1.30
2022-08-12T20:06:48.593Z,1.20
2022-08-12T20:08:57.140Z,1.15
2022-08-12T20:12:10.229Z,1.20
2022-08-12T20:13:37.382Z,1.83
2022-08-12T20:15:45.011Z,1.27
2022-08-12T20:17:51.624Z,1.27
2022-08-12T20:20:17.385Z,1.25
2022-08-12T20:22:31.480Z,1.10
2022-08-12T20:24:37.606Z,1.10
2022-08-12T20:26:43.754Z,1.10
2022-08-12T20:28:51.191Z,1.10
2022-08-12T20:30:59.888Z,1.10
2022-08-12T20:33:05.336Z,1.13
2022-08-12T20:35:11.981Z,1.10
2022-08-12T20:38:06.660Z,1.20
2022-08-12T20:39:56.716Z,1.10
2022-08-12T20:42:06.187Z,1.30
2022-08-12T20:44:18.403Z,1.27
2022-08-12T20:46:28.113Z,1.27
2022-08-12T20:48:34.165Z,1.33
2022-08-12T20:50:42.917Z,1.20
2022-08-12T20:52:58.393Z,1.20
2022-08-12T20:55:03.514Z,1.40
2022-08-12T20:59:21.535Z,1.10
2022-08-12T21:01:29.245Z,1.50
2022-08-12T21:03:58.185Z,1.10
2022-08-12T21:06:15.740Z,1.20
2022-08-12T21:08:22.213Z,1.27
2022-08-12T21:10:27.285Z,1.30
2022-08-12T21:12:34.394Z,1.50
2022-08-12T21:14:53.196Z,1.33
2022-08-12T21:16:59.342Z,1.33
2022-08-12T21:19:07.907Z,1.13
2022-08-12T21:21:23.897Z,1.20
2022-08-12T21:23:43.926Z,1.42
2022-08-12T21:25:49.176Z,1.10
2022-08-12T21:27:59.196Z,1.20
2022-08-12T21:30:14.222Z,1.02
2022-08-12T21:32:39.537Z,1.13
2022-08-12T21:34:44.323Z,1.60
2022-08-12T21:36:52.956Z,1.20
2022-08-12T21:39:01.117Z,1.40
2022-08-12T21:41:15.638Z,2.00
2022-08-12T21:43:21.083Z,1.77
2022-08-12T21:45:46.083Z,1.95
2022-08-12T21:47:53.825Z,1.60
2022-08-12T21:50:03.973Z,1.80
2022-08-12T21:52:14.655Z,1.80
2022-08-12T21:54:21.936Z,1.58
2022-08-12T21:56:34.668Z,1.70
2022-08-12T21:58:40.725Z,1.65
2022-08-12T22:00:48.470Z,1.35
2022-08-12T22:03:05.791Z,1.67
2022-08-12T22:05:31.047Z,1.60
2022-08-12T22:07:43.041Z,1.60
2022-08-12T22:09:56.919Z,1.40
2022-08-12T22:12:24.164Z,1.70
2022-08-12T22:14:30.133Z,1.70
2022-08-12T22:16:37.658Z,1.60
2022-08-12T22:18:53.090Z,1.40
2022-08-12T22:20:59.475Z,1.63
2022-08-12T22:23:05.343Z,1.20
2022-08-12T22:25:14.382Z,1.30
2022-08-12T22:27:32.507Z,1.20
2022-08-12T22:29:50.819Z,1.40
2022-08-12T22:31:59.017Z,1.58
2022-08-12T22:34:03.966Z,1.60
2022-08-12T22:36:11.153Z,1.40
2022-08-12T22:38:19.542Z,1.20
2022-08-12T22:40:24.476Z,1.42
2022-08-12T22:42:42.653Z,1.45
2022-08-12T22:45:02.781Z,1.40
2022-08-12T22:47:53.144Z,1.90
2022-08-12T22:49:53.521Z,1.60
2022-08-12T22:52:08.626Z,1.55
2022-08-12T22:54:20.850Z,1.30
2022-08-12T22:56:39.308Z,1.40
2022-08-12T22:58:46.278Z,1.30
2022-08-12T23:00:53.076Z,1.35
2022-08-12T23:03:03.144Z,1.30
2022-08-12T23:05:10.479Z,1.42
2022-08-12T23:07:15.482Z,1.65
2022-08-12T23:09:24.497Z,1.63
2022-08-12T23:11:36.252Z,1.85
2022-08-12T23:13:45.883Z,1.60
2022-08-12T23:15:54.494Z,1.70
2022-08-12T23:18:02.746Z,1.52
2022-08-12T23:20:10.740Z,2.00
2022-08-12T23:22:37.111Z,1.63
2022-08-12T23:24:55.905Z,1.80
2022-08-12T23:27:15.103Z,1.60
2022-08-12T23:29:26.053Z,1.55
2022-08-12T23:32:02.303Z,1.88
2022-08-12T23:34:03.518Z,1.60
2022-08-12T23:36:08.701Z,2.30
2022-08-12T23:38:31.153Z,1.95
2022-08-12T23:40:38.039Z,1.80
2022-08-12T23:42:44.562Z,1.80
2022-08-12T23:44:52.503Z,1.45
2022-08-12T23:46:59.243Z,1.60
2022-08-12T23:49:55.763Z,1.45
2022-08-12T23:51:35.615Z,2.00
2022-08-12T23:53:43.035Z,1.80
2022-08-12T23:55:49.912Z,1.50
2022-08-12T23:58:20.598Z,1.77
